sensor_id;sensor_type;location;lat;lon;timestamp;P1;durP1;ratioP1;P2;durP2;ratioP2
2177;SDS011;1095;50.992;6.798;2022-08-07T00:01:12;10.90;;;4.65;;
2177;SDS011;1095;50.992;6.798;2022-08-07T00:03:39;6.75;;;3.88;;
2177;SDS011;1095;50.992;6.798;2022-08-07T00:06:06;6.25;;;4.45;;
2177;SDS011;1095;50.992;6.798;2022-08-07T00:08:33;6.82;;;4.25;;
2177;SDS011;1095;50.992;6.798;2022-08-07T00:11:01;10.65;;;4.55;;
2177;SDS011;1095;50.992;6.798;2022-08-07T00:13:30;6.95;;;4.80;;
2177;SDS011;1095;50.992;6.798;2022-08-07T00:15:57;7.85;;;4.65;;
2177;SDS011;1095;50.992;6.798;2022-08-07T00:18:25;6.50;;;4.65;;
2177;SDS011;1095;50.992;6.798;2022-08-07T00:20:54;7.13;;;4.75;;
2177;SDS011;1095;50.992;6.798;2022-08-07T00:23:22;5.47;;;4.47;;
2177;SDS011;1095;50.992;6.798;2022-08-07T00:25:49;5.55;;;4.57;;
2177;SDS011;1095;50.992;6.798;2022-08-07T00:28:16;7.43;;;4.90;;
2177;SDS011;1095;50.992;6.798;2022-08-07T00:30:44;8.40;;;4.60;;
2177;SDS011;1095;50.992;6.798;2022-08-07T00:33:11;5.88;;;4.10;;
2177;SDS011;1095;50.992;6.798;2022-08-07T00:35:38;6.68;;;4.60;;
2177;SDS011;1095;50.992;6.798;2022-08-07T00:38:05;6.18;;;4.70;;
2177;SDS011;1095;50.992;6.798;2022-08-07T00:40:33;5.57;;;4.60;;
2177;SDS011;1095;50.992;6.798;2022-08-07T00:43:00;7.95;;;4.82;;
2177;SDS011;1095;50.992;6.798;2022-08-07T00:45:27;9.25;;;5.07;;
2177;SDS011;1095;50.992;6.798;2022-08-07T00:47:55;7.15;;;4.68;;
2177;SDS011;1095;50.992;6.798;2022-08-07T00:50:22;7.97;;;4.78;;
2177;SDS011;1095;50.992;6.798;2022-08-07T00:52:48;7.70;;;5.00;;
2177;SDS011;1095;50.992;6.798;2022-08-07T00:55:15;8.60;;;4.93;;
2177;SDS011;1095;50.992;6.798;2022-08-07T00:57:42;9.80;;;4.68;;
2177;SDS011;1095;50.992;6.798;2022-08-07T01:02:43;6.28;;;4.53;;
2177;SDS011;1095;50.992;6.798;2022-08-07T01:05:19;7.78;;;5.07;;
2177;SDS011;1095;50.992;6.798;2022-08-07T01:07:50;5.95;;;4.53;;
2177;SDS011;1095;50.992;6.798;2022-08-07T01:10:22;9.15;;;4.78;;
2177;SDS011;1095;50.992;6.798;2022-08-07T01:12:51;9.88;;;4.65;;
2177;SDS011;1095;50.992;6.798;2022-08-07T01:15:24;7.13;;;4.90;;
2177;SDS011;1095;50.992;6.798;2022-08-07T01:17:50;6.80;;;4.82;;
2177;SDS011;1095;50.992;6.798;2022-08-07T01:20:25;6.47;;;4.70;;
2177;SDS011;1095;50.992;6.798;2022-08-07T01:22:59;6.35;;;4.60;;
2177;SDS011;1095;50.992;6.798;2022-08-07T01:28:26;7.32;;;4.75;;
2177;SDS011;1095;50.992;6.798;2022-08-07T01:31:13;7.65;;;4.78;;
2177;SDS011;1095;50.992;6.798;2022-08-07T01:34:11;7.72;;;4.97;;
2177;SDS011;1095;50.992;6.798;2022-08-07T01:36:40;10.20;;;6.32;;
2177;SDS011;1095;50.992;6.798;2022-08-07T01:39:10;6.45;;;4.82;;
2177;SDS011;1095;50.992;6.798;2022-08-07T01:41:37;7.50;;;4.80;;
2177;SDS011;1095;50.992;6.798;2022-08-07T01:44:04;8.05;;;4.60;;
2177;SDS011;1095;50.992;6.798;2022-08-07T01:46:32;6.72;;;4.88;;
2177;SDS011;1095;50.992;6.798;2022-08-07T01:48:59;7.40;;;5.50;;
2177;SDS011;1095;50.992;6.798;2022-08-07T01:51:26;7.15;;;4.82;;
2177;SDS011;1095;50.992;6.798;2022-08-07T01:53:54;7.35;;;5.88;;
2177;SDS011;1095;50.992;6.798;2022-08-07T01:56:25;7.22;;;5.18;;
2177;SDS011;1095;50.992;6.798;2022-08-07T01:58:57;7.90;;;5.35;;
2177;SDS011;1095;50.992;6.798;2022-08-07T02:01:30;7.03;;;5.30;;
2177;SDS011;1095;50.992;6.798;2022-08-07T02:04:02;7.40;;;5.53;;
2177;SDS011;1095;50.992;6.798;2022-08-07T02:09:02;8.93;;;5.30;;
2177;SDS011;1095;50.992;6.798;2022-08-07T02:11:31;8.52;;;5.53;;
2177;SDS011;1095;50.992;6.798;2022-08-07T02:14:00;7.40;;;5.88;;
2177;SDS011;1095;50.992;6.798;2022-08-07T02:16:28;8.70;;;5.70;;
2177;SDS011;1095;50.992;6.798;2022-08-07T02:18:56;8.18;;;5.70;;
2177;SDS011;1095;50.992;6.798;2022-08-07T02:21:23;8.88;;;5.63;;
2177;SDS011;1095;50.992;6.798;2022-08-07T02:23:51;10.77;;;5.80;;
2177;SDS011;1095;50.992;6.798;2022-08-07T02:26:18;7.70;;;5.78;;
2177;SDS011;1095;50.992;6.798;2022-08-07T02:28:47;7.07;;;5.30;;
2177;SDS011;1095;50.992;6.798;2022-08-07T02:31:15;8.40;;;5.45;;
2177;SDS011;1095;50.992;6.798;2022-08-07T02:33:43;6.85;;;5.40;;
2177;SDS011;1095;50.992;6.798;2022-08-07T02:36:12;8.80;;;5.60;;
2177;SDS011;1095;50.992;6.798;2022-08-07T02:38:41;8.38;;;5.50;;
2177;SDS011;1095;50.992;6.798;2022-08-07T02:41:09;7.88;;;5.30;;
2177;SDS011;1095;50.992;6.798;2022-08-07T02:43:37;12.43;;;5.60;;
2177;SDS011;1095;50.992;6.798;2022-08-07T02:46:07;8.18;;;5.47;;
2177;SDS011;1095;50.992;6.798;2022-08-07T02:48:38;7.15;;;5.70;;
2177;SDS011;1095;50.992;6.798;2022-08-07T02:51:06;9.80;;;6.00;;
2177;SDS011;1095;50.992;6.798;2022-08-07T02:53:35;7.55;;;5.75;;
2177;SDS011;1095;50.992;6.798;2022-08-07T02:56:06;10.73;;;5.50;;
2177;SDS011;1095;50.992;6.798;2022-08-07T02:58:36;7.18;;;5.75;;
2177;SDS011;1095;50.992;6.798;2022-08-07T03:01:06;7.43;;;6.00;;
2177;SDS011;1095;50.992;6.798;2022-08-07T03:03:35;7.72;;;5.78;;
2177;SDS011;1095;50.992;6.798;2022-08-07T03:06:02;7.88;;;5.72;;
2177;SDS011;1095;50.992;6.798;2022-08-07T03:08:30;8.50;;;5.88;;
2177;SDS011;1095;50.992;6.798;2022-08-07T03:10:57;7.80;;;6.00;;
2177;SDS011;1095;50.992;6.798;2022-08-07T03:13:25;8.73;;;5.97;;
2177;SDS011;1095;50.992;6.798;2022-08-07T03:15:53;8.57;;;6.25;;
2177;SDS011;1095;50.992;6.798;2022-08-07T03:18:22;7.97;;;6.05;;
2177;SDS011;1095;50.992;6.798;2022-08-07T03:20:49;7.22;;;6.05;;
2177;SDS011;1095;50.992;6.798;2022-08-07T03:23:16;7.53;;;6.18;;
2177;SDS011;1095;50.992;6.798;2022-08-07T03:25:45;9.40;;;6.05;;
2177;SDS011;1095;50.992;6.798;2022-08-07T03:28:12;10.02;;;6.75;;
2177;SDS011;1095;50.992;6.798;2022-08-07T03:30:43;10.48;;;6.40;;
2177;SDS011;1095;50.992;6.798;2022-08-07T03:33:10;10.05;;;6.80;;
2177;SDS011;1095;50.992;6.798;2022-08-07T03:35:40;10.93;;;6.60;;
2177;SDS011;1095;50.992;6.798;2022-08-07T03:38:10;12.43;;;7.00;;
2177;SDS011;1095;50.992;6.798;2022-08-07T03:40:40;9.65;;;6.35;;
2177;SDS011;1095;50.992;6.798;2022-08-07T03:43:07;8.23;;;6.15;;
2177;SDS011;1095;50.992;6.798;2022-08-07T03:45:34;8.75;;;6.70;;
2177;SDS011;1095;50.992;6.798;2022-08-07T03:48:01;9.23;;;7.07;;
2177;SDS011;1095;50.992;6.798;2022-08-07T03:50:28;9.85;;;7.03;;
2177;SDS011;1095;50.992;6.798;2022-08-07T03:52:57;9.80;;;6.82;;
2177;SDS011;1095;50.992;6.798;2022-08-07T03:55:30;8.80;;;6.53;;
2177;SDS011;1095;50.992;6.798;2022-08-07T03:58:04;10.38;;;7.00;;
2177;SDS011;1095;50.992;6.798;2022-08-07T04:00:34;9.63;;;6.97;;
2177;SDS011;1095;50.992;6.798;2022-08-07T04:03:14;11.57;;;7.25;;
2177;SDS011;1095;50.992;6.798;2022-08-07T04:20:19;10.43;;;7.10;;
2177;SDS011;1095;50.992;6.798;2022-08-07T04:22:49;9.60;;;7.43;;
2177;SDS011;1095;50.992;6.798;2022-08-07T04:25:23;10.20;;;7.20;;
2177;SDS011;1095;50.992;6.798;2022-08-07T04:27:51;11.82;;;8.02;;
2177;SDS011;1095;50.992;6.798;2022-08-07T04:30:21;11.65;;;7.25;;
2177;SDS011;1095;50.992;6.798;2022-08-07T04:32:50;9.98;;;7.20;;
2177;SDS011;1095;50.992;6.798;2022-08-07T04:35:18;9.32;;;6.90;;
2177;SDS011;1095;50.992;6.798;2022-08-07T04:37:46;8.45;;;7.00;;
2177;SDS011;1095;50.992;6.798;2022-08-07T04:40:15;12.50;;;7.68;;
2177;SDS011;1095;50.992;6.798;2022-08-07T04:42:42;12.95;;;6.95;;
2177;SDS011;1095;50.992;6.798;2022-08-07T04:45:09;11.93;;;7.13;;
2177;SDS011;1095;50.992;6.798;2022-08-07T04:47:40;12.93;;;7.07;;
2177;SDS011;1095;50.992;6.798;2022-08-07T04:50:17;8.43;;;7.15;;
2177;SDS011;1095;50.992;6.798;2022-08-07T04:52:52;9.45;;;7.20;;
2177;SDS011;1095;50.992;6.798;2022-08-07T04:57:56;9.30;;;6.68;;
2177;SDS011;1095;50.992;6.798;2022-08-07T05:00:27;9.75;;;7.15;;
2177;SDS011;1095;50.992;6.798;2022-08-07T05:03:03;9.30;;;7.13;;
2177;SDS011;1095;50.992;6.798;2022-08-07T05:05:44;9.57;;;6.70;;
2177;SDS011;1095;50.992;6.798;2022-08-07T05:08:19;10.90;;;6.93;;
2177;SDS011;1095;50.992;6.798;2022-08-07T05:10:55;13.20;;;7.45;;
2177;SDS011;1095;50.992;6.798;2022-08-07T05:13:27;12.50;;;6.80;;
2177;SDS011;1095;50.992;6.798;2022-08-07T05:16:01;7.80;;;6.53;;
2177;SDS011;1095;50.992;6.798;2022-08-07T05:18:31;8.27;;;6.38;;
2177;SDS011;1095;50.992;6.798;2022-08-07T05:21:02;9.93;;;6.78;;
2177;SDS011;1095;50.992;6.798;2022-08-07T05:23:35;9.55;;;6.63;;
2177;SDS011;1095;50.992;6.798;2022-08-07T05:26:09;10.95;;;6.75;;
2177;SDS011;1095;50.992;6.798;2022-08-07T05:28:41;7.85;;;6.90;;
2177;SDS011;1095;50.992;6.798;2022-08-07T05:31:10;7.88;;;6.15;;
2177;SDS011;1095;50.992;6.798;2022-08-07T05:33:39;8.45;;;5.93;;
2177;SDS011;1095;50.992;6.798;2022-08-07T05:36:09;9.90;;;6.15;;
2177;SDS011;1095;50.992;6.798;2022-08-07T05:38:38;8.38;;;5.93;;
2177;SDS011;1095;50.992;6.798;2022-08-07T05:41:05;7.30;;;5.45;;
2177;SDS011;1095;50.992;6.798;2022-08-07T05:43:33;6.30;;;5.30;;
2177;SDS011;1095;50.992;6.798;2022-08-07T05:46:00;8.57;;;5.57;;
2177;SDS011;1095;50.992;6.798;2022-08-07T05:48:27;8.27;;;5.45;;
2177;SDS011;1095;50.992;6.798;2022-08-07T05:50:55;8.10;;;5.50;;
2177;SDS011;1095;50.992;6.798;2022-08-07T05:53:25;7.55;;;5.50;;
2177;SDS011;1095;50.992;6.798;2022-08-07T05:55:54;7.28;;;5.47;;
2177;SDS011;1095;50.992;6.798;2022-08-07T05:58:24;8.05;;;5.60;;
2177;SDS011;1095;50.992;6.798;2022-08-07T06:00:59;7.22;;;5.50;;
2177;SDS011;1095;50.992;6.798;2022-08-07T06:03:52;5.43;;;4.57;;
2177;SDS011;1095;50.992;6.798;2022-08-07T06:06:20;6.88;;;4.78;;
2177;SDS011;1095;50.992;6.798;2022-08-07T06:08:52;5.72;;;5.00;;
2177;SDS011;1095;50.992;6.798;2022-08-07T06:11:22;6.40;;;5.13;;
2177;SDS011;1095;50.992;6.798;2022-08-07T06:13:52;6.15;;;4.63;;
2177;SDS011;1095;50.992;6.798;2022-08-07T06:16:23;8.10;;;5.05;;
2177;SDS011;1095;50.992;6.798;2022-08-07T06:18:57;7.60;;;4.78;;
2177;SDS011;1095;50.992;6.798;2022-08-07T06:21:30;10.60;;;5.00;;
2177;SDS011;1095;50.992;6.798;2022-08-07T06:23:59;5.95;;;4.85;;
2177;SDS011;1095;50.992;6.798;2022-08-07T06:26:25;6.85;;;4.93;;
2177;SDS011;1095;50.992;6.798;2022-08-07T06:28:53;8.55;;;4.20;;
2177;SDS011;1095;50.992;6.798;2022-08-07T06:31:22;6.00;;;4.60;;
2177;SDS011;1095;50.992;6.798;2022-08-07T06:33:49;5.30;;;4.60;;
2177;SDS011;1095;50.992;6.798;2022-08-07T06:36:16;6.72;;;4.40;;
2177;SDS011;1095;50.992;6.798;2022-08-07T06:38:43;5.90;;;4.65;;
2177;SDS011;1095;50.992;6.798;2022-08-07T06:41:11;6.65;;;4.43;;
2177;SDS011;1095;50.992;6.798;2022-08-07T06:43:43;5.97;;;4.35;;
2177;SDS011;1095;50.992;6.798;2022-08-07T06:46:12;7.50;;;4.63;;
2177;SDS011;1095;50.992;6.798;2022-08-07T06:48:41;7.28;;;4.38;;
2177;SDS011;1095;50.992;6.798;2022-08-07T06:51:08;5.78;;;4.40;;
2177;SDS011;1095;50.992;6.798;2022-08-07T06:53:39;4.83;;;4.30;;
2177;SDS011;1095;50.992;6.798;2022-08-07T06:56:07;6.72;;;4.68;;
2177;SDS011;1095;50.992;6.798;2022-08-07T06:58:38;7.85;;;4.40;;
2177;SDS011;1095;50.992;6.798;2022-08-07T07:01:07;7.07;;;4.78;;
2177;SDS011;1095;50.992;6.798;2022-08-07T07:03:36;7.30;;;5.47;;
2177;SDS011;1095;50.992;6.798;2022-08-07T07:06:05;5.88;;;4.55;;
2177;SDS011;1095;50.992;6.798;2022-08-07T07:08:34;6.38;;;4.55;;
2177;SDS011;1095;50.992;6.798;2022-08-07T07:11:02;5.68;;;4.55;;
2177;SDS011;1095;50.992;6.798;2022-08-07T07:13:30;5.38;;;4.25;;
2177;SDS011;1095;50.992;6.798;2022-08-07T07:16:03;5.07;;;4.30;;
2177;SDS011;1095;50.992;6.798;2022-08-07T07:18:35;10.05;;;4.70;;
2177;SDS011;1095;50.992;6.798;2022-08-07T07:23:35;6.45;;;4.43;;
2177;SDS011;1095;50.992;6.798;2022-08-07T07:26:03;5.30;;;4.18;;
2177;SDS011;1095;50.992;6.798;2022-08-07T07:28:34;9.70;;;4.38;;
2177;SDS011;1095;50.992;6.798;2022-08-07T07:31:05;11.38;;;3.92;;
2177;SDS011;1095;50.992;6.798;2022-08-07T07:33:47;7.07;;;3.88;;
2177;SDS011;1095;50.992;6.798;2022-08-07T07:36:19;5.88;;;3.70;;
2177;SDS011;1095;50.992;6.798;2022-08-07T07:38:49;5.18;;;3.67;;
2177;SDS011;1095;50.992;6.798;2022-08-07T07:41:16;4.20;;;3.53;;
2177;SDS011;1095;50.992;6.798;2022-08-07T07:43:46;6.25;;;3.75;;
2177;SDS011;1095;50.992;6.798;2022-08-07T07:46:18;4.27;;;3.63;;
2177;SDS011;1095;50.992;6.798;2022-08-07T07:48:47;4.88;;;3.42;;
2177;SDS011;1095;50.992;6.798;2022-08-07T07:51:16;5.28;;;3.28;;
2177;SDS011;1095;50.992;6.798;2022-08-07T07:53:45;5.38;;;3.50;;
2177;SDS011;1095;50.992;6.798;2022-08-07T07:56:13;5.60;;;3.60;;
2177;SDS011;1095;50.992;6.798;2022-08-07T07:58:41;5.40;;;3.38;;
2177;SDS011;1095;50.992;6.798;2022-08-07T08:01:09;5.95;;;3.42;;
2177;SDS011;1095;50.992;6.798;2022-08-07T08:03:38;5.50;;;3.20;;
2177;SDS011;1095;50.992;6.798;2022-08-07T08:06:10;4.35;;;3.20;;
2177;SDS011;1095;50.992;6.798;2022-08-07T08:08:38;3.38;;;2.97;;
2177;SDS011;1095;50.992;6.798;2022-08-07T08:11:08;5.80;;;3.65;;
2177;SDS011;1095;50.992;6.798;2022-08-07T08:13:37;5.18;;;3.28;;
2177;SDS011;1095;50.992;6.798;2022-08-07T08:16:07;4.65;;;3.08;;
2177;SDS011;1095;50.992;6.798;2022-08-07T08:18:39;4.18;;;3.08;;
2177;SDS011;1095;50.992;6.798;2022-08-07T08:21:12;5.63;;;3.20;;
2177;SDS011;1095;50.992;6.798;2022-08-07T08:23:54;3.63;;;2.70;;
2177;SDS011;1095;50.992;6.798;2022-08-07T08:26:52;4.40;;;2.80;;
2177;SDS011;1095;50.992;6.798;2022-08-07T08:29:35;4.90;;;3.22;;
2177;SDS011;1095;50.992;6.798;2022-08-07T08:32:05;4.43;;;2.58;;
2177;SDS011;1095;50.992;6.798;2022-08-07T08:34:38;4.47;;;2.88;;
2177;SDS011;1095;50.992;6.798;2022-08-07T08:37:10;6.07;;;2.58;;
2177;SDS011;1095;50.992;6.798;2022-08-07T08:39:38;2.58;;;2.33;;
2177;SDS011;1095;50.992;6.798;2022-08-07T08:42:12;3.08;;;2.40;;
2177;SDS011;1095;50.992;6.798;2022-08-07T08:44:47;3.88;;;2.70;;
2177;SDS011;1095;50.992;6.798;2022-08-07T08:47:24;4.82;;;2.67;;
2177;SDS011;1095;50.992;6.798;2022-08-07T08:49:58;4.30;;;2.70;;
2177;SDS011;1095;50.992;6.798;2022-08-07T08:52:31;3.15;;;2.85;;
2177;SDS011;1095;50.992;6.798;2022-08-07T08:55:05;3.10;;;2.53;;
2177;SDS011;1095;50.992;6.798;2022-08-07T08:57:39;3.10;;;2.40;;
2177;SDS011;1095;50.992;6.798;2022-08-07T09:00:10;2.78;;;2.55;;
2177;SDS011;1095;50.992;6.798;2022-08-07T09:02:39;4.25;;;2.50;;
2177;SDS011;1095;50.992;6.798;2022-08-07T09:05:25;4.95;;;2.95;;
2177;SDS011;1095;50.992;6.798;2022-08-07T09:08:03;3.72;;;1.90;;
2177;SDS011;1095;50.992;6.798;2022-08-07T09:10:40;3.08;;;2.33;;
2177;SDS011;1095;50.992;6.798;2022-08-07T09:13:26;5.75;;;4.15;;
2177;SDS011;1095;50.992;6.798;2022-08-07T09:15:59;5.20;;;2.30;;
2177;SDS011;1095;50.992;6.798;2022-08-07T09:18:32;5.25;;;2.50;;
2177;SDS011;1095;50.992;6.798;2022-08-07T09:21:31;4.05;;;2.17;;
2177;SDS011;1095;50.992;6.798;2022-08-07T09:24:04;4.05;;;2.38;;
2177;SDS011;1095;50.992;6.798;2022-08-07T09:26:43;2.80;;;2.00;;
2177;SDS011;1095;50.992;6.798;2022-08-07T09:29:20;2.50;;;2.28;;
2177;SDS011;1095;50.992;6.798;2022-08-07T09:31:54;5.63;;;2.10;;
2177;SDS011;1095;50.992;6.798;2022-08-07T09:34:28;4.20;;;1.83;;
2177;SDS011;1095;50.992;6.798;2022-08-07T09:37:10;2.25;;;1.42;;
2177;SDS011;1095;50.992;6.798;2022-08-07T09:39:44;2.67;;;1.60;;
2177;SDS011;1095;50.992;6.798;2022-08-07T09:42:21;3.67;;;2.00;;
2177;SDS011;1095;50.992;6.798;2022-08-07T09:45:02;2.60;;;2.22;;
2177;SDS011;1095;50.992;6.798;2022-08-07T09:47:37;3.45;;;1.98;;
2177;SDS011;1095;50.992;6.798;2022-08-07T09:50:18;2.92;;;1.60;;
2177;SDS011;1095;50.992;6.798;2022-08-07T09:52:58;2.20;;;1.63;;
2177;SDS011;1095;50.992;6.798;2022-08-07T09:55:29;2.63;;;1.80;;
2177;SDS011;1095;50.992;6.798;2022-08-07T09:58:23;6.25;;;1.83;;
2177;SDS011;1095;50.992;6.798;2022-08-07T10:01:15;3.50;;;1.95;;
2177;SDS011;1095;50.992;6.798;2022-08-07T10:04:03;4.78;;;2.38;;
2177;SDS011;1095;50.992;6.798;2022-08-07T10:06:45;2.42;;;1.77;;
2177;SDS011;1095;50.992;6.798;2022-08-07T10:12:22;1.80;;;1.63;;
2177;SDS011;1095;50.992;6.798;2022-08-07T10:15:09;3.17;;;2.08;;
2177;SDS011;1095;50.992;6.798;2022-08-07T10:18:06;3.08;;;1.67;;
2177;SDS011;1095;50.992;6.798;2022-08-07T10:20:44;1.48;;;1.20;;
2177;SDS011;1095;50.992;6.798;2022-08-07T10:23:38;2.78;;;1.50;;
2177;SDS011;1095;50.992;6.798;2022-08-07T10:26:19;2.95;;;1.27;;
2177;SDS011;1095;50.992;6.798;2022-08-07T10:29:03;3.10;;;1.90;;
2177;SDS011;1095;50.992;6.798;2022-08-07T10:31:46;7.85;;;1.75;;
2177;SDS011;1095;50.992;6.798;2022-08-07T10:34:26;4.47;;;1.55;;
2177;SDS011;1095;50.992;6.798;2022-08-07T10:37:06;1.55;;;1.13;;
2177;SDS011;1095;50.992;6.798;2022-08-07T10:39:46;5.18;;;2.05;;
2177;SDS011;1095;50.992;6.798;2022-08-07T10:42:27;4.03;;;1.63;;
2177;SDS011;1095;50.992;6.798;2022-08-07T10:45:00;2.85;;;1.65;;
2177;SDS011;1095;50.992;6.798;2022-08-07T10:47:38;3.20;;;1.63;;
2177;SDS011;1095;50.992;6.798;2022-08-07T10:50:11;2.08;;;1.45;;
2177;SDS011;1095;50.992;6.798;2022-08-07T10:52:46;2.03;;;1.60;;
2177;SDS011;1095;50.992;6.798;2022-08-07T10:55:25;2.77;;;1.57;;
2177;SDS011;1095;50.992;6.798;2022-08-07T10:58:00;1.85;;;1.48;;
2177;SDS011;1095;50.992;6.798;2022-08-07T11:00:39;2.50;;;1.85;;
2177;SDS011;1095;50.992;6.798;2022-08-07T11:03:14;2.85;;;1.58;;
2177;SDS011;1095;50.992;6.798;2022-08-07T11:05:51;1.80;;;1.55;;
2177;SDS011;1095;50.992;6.798;2022-08-07T11:08:25;3.67;;;1.88;;
2177;SDS011;1095;50.992;6.798;2022-08-07T11:10:58;3.28;;;1.55;;
2177;SDS011;1095;50.992;6.798;2022-08-07T11:13:33;2.97;;;1.27;;
2177;SDS011;1095;50.992;6.798;2022-08-07T11:18:32;2.72;;;2.10;;
2177;SDS011;1095;50.992;6.798;2022-08-07T11:21:05;2.67;;;1.50;;
2177;SDS011;1095;50.992;6.798;2022-08-07T11:23:40;1.70;;;1.48;;
2177;SDS011;1095;50.992;6.798;2022-08-07T11:26:20;1.50;;;1.40;;
2177;SDS011;1095;50.992;6.798;2022-08-07T11:28:55;3.45;;;1.55;;
2177;SDS011;1095;50.992;6.798;2022-08-07T11:31:28;3.20;;;1.67;;
2177;SDS011;1095;50.992;6.798;2022-08-07T11:34:04;3.40;;;1.70;;
2177;SDS011;1095;50.992;6.798;2022-08-07T11:36:43;4.25;;;2.05;;
2177;SDS011;1095;50.992;6.798;2022-08-07T11:39:22;2.10;;;1.77;;
2177;SDS011;1095;50.992;6.798;2022-08-07T11:41:58;6.57;;;1.60;;
2177;SDS011;1095;50.992;6.798;2022-08-07T11:44:41;1.75;;;1.63;;
2177;SDS011;1095;50.992;6.798;2022-08-07T11:47:19;2.67;;;1.88;;
2177;SDS011;1095;50.992;6.798;2022-08-07T11:49:59;1.70;;;1.60;;
2177;SDS011;1095;50.992;6.798;2022-08-07T11:52:44;1.85;;;1.63;;
2177;SDS011;1095;50.992;6.798;2022-08-07T11:55:28;4.78;;;1.70;;
2177;SDS011;1095;50.992;6.798;2022-08-07T11:58:13;1.60;;;1.45;;
2177;SDS011;1095;50.992;6.798;2022-08-07T12:00:49;1.60;;;1.48;;
2177;SDS011;1095;50.992;6.798;2022-08-07T12:03:35;2.40;;;1.50;;
2177;SDS011;1095;50.992;6.798;2022-08-07T12:09:04;2.85;;;1.60;;
2177;SDS011;1095;50.992;6.798;2022-08-07T12:11:38;2.10;;;1.75;;
2177;SDS011;1095;50.992;6.798;2022-08-07T12:14:11;4.25;;;1.63;;
2177;SDS011;1095;50.992;6.798;2022-08-07T12:16:45;3.00;;;2.42;;
2177;SDS011;1095;50.992;6.798;2022-08-07T12:19:16;2.35;;;1.60;;
2177;SDS011;1095;50.992;6.798;2022-08-07T12:21:50;2.63;;;2.00;;
2177;SDS011;1095;50.992;6.798;2022-08-07T12:24:24;2.63;;;2.00;;
2177;SDS011;1095;50.992;6.798;2022-08-07T12:26:57;5.05;;;1.90;;
2177;SDS011;1095;50.992;6.798;2022-08-07T12:32:00;5.75;;;1.83;;
2177;SDS011;1095;50.992;6.798;2022-08-07T12:34:34;2.90;;;1.60;;
2177;SDS011;1095;50.992;6.798;2022-08-07T12:37:03;2.03;;;1.60;;
2177;SDS011;1095;50.992;6.798;2022-08-07T12:39:32;2.95;;;1.60;;
2177;SDS011;1095;50.992;6.798;2022-08-07T12:42:04;3.13;;;1.80;;
2177;SDS011;1095;50.992;6.798;2022-08-07T12:44:34;2.05;;;1.73;;
2177;SDS011;1095;50.992;6.798;2022-08-07T12:47:09;1.45;;;1.30;;
2177;SDS011;1095;50.992;6.798;2022-08-07T12:49:47;3.00;;;1.80;;
2177;SDS011;1095;50.992;6.798;2022-08-07T12:52:20;2.15;;;1.30;;
2177;SDS011;1095;50.992;6.798;2022-08-07T12:54:56;1.77;;;1.33;;
2177;SDS011;1095;50.992;6.798;2022-08-07T12:57:29;4.20;;;1.80;;
2177;SDS011;1095;50.992;6.798;2022-08-07T12:59:57;3.42;;;1.98;;
2177;SDS011;1095;50.992;6.798;2022-08-07T13:05:43;1.95;;;1.67;;
2177;SDS011;1095;50.992;6.798;2022-08-07T13:08:34;3.65;;;1.60;;
2177;SDS011;1095;50.992;6.798;2022-08-07T13:11:13;2.63;;;1.85;;
2177;SDS011;1095;50.992;6.798;2022-08-07T13:13:56;2.03;;;1.55;;
2177;SDS011;1095;50.992;6.798;2022-08-07T13:16:34;2.85;;;1.95;;
2177;SDS011;1095;50.992;6.798;2022-08-07T13:19:08;3.13;;;1.52;;
2177;SDS011;1095;50.992;6.798;2022-08-07T13:21:44;2.63;;;1.60;;
2177;SDS011;1095;50.992;6.798;2022-08-07T13:24:19;2.08;;;1.20;;
2177;SDS011;1095;50.992;6.798;2022-08-07T13:29:22;2.47;;;1.23;;
2177;SDS011;1095;50.992;6.798;2022-08-07T13:31:56;3.75;;;1.80;;
2177;SDS011;1095;50.992;6.798;2022-08-07T13:34:36;1.58;;;1.45;;
2177;SDS011;1095;50.992;6.798;2022-08-07T13:37:17;2.22;;;1.88;;
2177;SDS011;1095;50.992;6.798;2022-08-07T13:40:05;1.73;;;1.63;;
2177;SDS011;1095;50.992;6.798;2022-08-07T13:42:38;2.05;;;1.70;;
2177;SDS011;1095;50.992;6.798;2022-08-07T13:45:07;2.30;;;1.85;;
2177;SDS011;1095;50.992;6.798;2022-08-07T13:47:36;1.92;;;1.58;;
2177;SDS011;1095;50.992;6.798;2022-08-07T13:50:04;1.75;;;1.42;;
2177;SDS011;1095;50.992;6.798;2022-08-07T13:52:37;2.78;;;1.63;;
2177;SDS011;1095;50.992;6.798;2022-08-07T13:55:07;1.38;;;1.10;;
2177;SDS011;1095;50.992;6.798;2022-08-07T13:57:38;3.72;;;1.95;;
2177;SDS011;1095;50.992;6.798;2022-08-07T14:00:07;2.28;;;1.65;;
2177;SDS011;1095;50.992;6.798;2022-08-07T14:02:35;1.63;;;1.33;;
2177;SDS011;1095;50.992;6.798;2022-08-07T14:05:03;2.22;;;1.50;;
2177;SDS011;1095;50.992;6.798;2022-08-07T14:07:38;1.80;;;1.70;;
2177;SDS011;1095;50.992;6.798;2022-08-07T14:10:07;3.72;;;1.85;;
2177;SDS011;1095;50.992;6.798;2022-08-07T14:12:35;1.75;;;1.20;;
2177;SDS011;1095;50.992;6.798;2022-08-07T14:15:15;1.55;;;1.40;;
2177;SDS011;1095;50.992;6.798;2022-08-07T14:17:44;4.43;;;1.67;;
2177;SDS011;1095;50.992;6.798;2022-08-07T14:20:15;3.17;;;1.73;;
2177;SDS011;1095;50.992;6.798;2022-08-07T14:22:46;2.35;;;1.70;;
2177;SDS011;1095;50.992;6.798;2022-08-07T14:25:22;3.17;;;1.73;;
2177;SDS011;1095;50.992;6.798;2022-08-07T14:27:50;2.88;;;1.85;;
2177;SDS011;1095;50.992;6.798;2022-08-07T14:30:20;1.58;;;1.30;;
2177;SDS011;1095;50.992;6.798;2022-08-07T14:32:49;2.75;;;1.65;;
2177;SDS011;1095;50.992;6.798;2022-08-07T14:35:22;3.05;;;1.90;;
2177;SDS011;1095;50.992;6.798;2022-08-07T14:37:52;3.25;;;2.03;;
2177;SDS011;1095;50.992;6.798;2022-08-07T14:40:21;4.93;;;2.38;;
2177;SDS011;1095;50.992;6.798;2022-08-07T14:42:53;3.90;;;1.48;;
2177;SDS011;1095;50.992;6.798;2022-08-07T14:45:23;3.78;;;1.95;;
2177;SDS011;1095;50.992;6.798;2022-08-07T14:47:51;3.28;;;1.75;;
2177;SDS011;1095;50.992;6.798;2022-08-07T14:50:22;1.83;;;1.45;;
2177;SDS011;1095;50.992;6.798;2022-08-07T14:52:51;3.70;;;1.80;;
2177;SDS011;1095;50.992;6.798;2022-08-07T14:55:20;3.88;;;1.95;;
2177;SDS011;1095;50.992;6.798;2022-08-07T14:57:48;1.67;;;1.58;;
2177;SDS011;1095;50.992;6.798;2022-08-07T15:00:16;3.22;;;2.03;;
2177;SDS011;1095;50.992;6.798;2022-08-07T15:02:45;3.72;;;1.85;;
2177;SDS011;1095;50.992;6.798;2022-08-07T15:05:16;1.92;;;1.67;;
2177;SDS011;1095;50.992;6.798;2022-08-07T15:07:44;6.03;;;1.87;;
2177;SDS011;1095;50.992;6.798;2022-08-07T15:10:17;2.30;;;2.10;;
2177;SDS011;1095;50.992;6.798;2022-08-07T15:12:45;5.72;;;2.10;;
2177;SDS011;1095;50.992;6.798;2022-08-07T15:15:20;4.07;;;1.70;;
2177;SDS011;1095;50.992;6.798;2022-08-07T15:17:52;3.20;;;1.50;;
2177;SDS011;1095;50.992;6.798;2022-08-07T15:20:26;2.13;;;1.70;;
2177;SDS011;1095;50.992;6.798;2022-08-07T15:22:58;3.25;;;1.48;;
2177;SDS011;1095;50.992;6.798;2022-08-07T15:25:31;1.73;;;1.60;;
2177;SDS011;1095;50.992;6.798;2022-08-07T15:28:00;2.05;;;1.50;;
2177;SDS011;1095;50.992;6.798;2022-08-07T15:30:30;3.03;;;1.90;;
2177;SDS011;1095;50.992;6.798;2022-08-07T15:32:58;3.05;;;2.00;;
2177;SDS011;1095;50.992;6.798;2022-08-07T15:35:26;3.67;;;2.15;;
2177;SDS011;1095;50.992;6.798;2022-08-07T15:37:56;2.38;;;1.60;;
2177;SDS011;1095;50.992;6.798;2022-08-07T15:40:25;2.28;;;1.60;;
2177;SDS011;1095;50.992;6.798;2022-08-07T15:42:59;2.05;;;1.70;;
2177;SDS011;1095;50.992;6.798;2022-08-07T15:45:31;2.92;;;1.98;;
2177;SDS011;1095;50.992;6.798;2022-08-07T15:48:04;2.72;;;1.60;;
2177;SDS011;1095;50.992;6.798;2022-08-07T15:50:39;1.88;;;1.50;;
2177;SDS011;1095;50.992;6.798;2022-08-07T15:53:07;2.95;;;1.98;;
2177;SDS011;1095;50.992;6.798;2022-08-07T15:55:38;1.85;;;1.65;;
2177;SDS011;1095;50.992;6.798;2022-08-07T15:58:10;2.28;;;2.08;;
2177;SDS011;1095;50.992;6.798;2022-08-07T16:00:42;4.10;;;2.00;;
2177;SDS011;1095;50.992;6.798;2022-08-07T16:03:13;2.67;;;1.88;;
2177;SDS011;1095;50.992;6.798;2022-08-07T16:05:46;4.53;;;2.67;;
2177;SDS011;1095;50.992;6.798;2022-08-07T16:10:46;1.75;;;1.65;;
2177;SDS011;1095;50.992;6.798;2022-08-07T16:16:53;2.78;;;1.88;;
2177;SDS011;1095;50.992;6.798;2022-08-07T16:19:36;2.88;;;1.83;;
2177;SDS011;1095;50.992;6.798;2022-08-07T16:22:29;4.55;;;1.63;;
2177;SDS011;1095;50.992;6.798;2022-08-07T16:25:11;2.67;;;1.77;;
2177;SDS011;1095;50.992;6.798;2022-08-07T16:27:58;1.92;;;1.70;;
2177;SDS011;1095;50.992;6.798;2022-08-07T16:30:48;2.63;;;2.10;;
2177;SDS011;1095;50.992;6.798;2022-08-07T16:33:21;3.00;;;1.77;;
2177;SDS011;1095;50.992;6.798;2022-08-07T16:36:02;3.83;;;2.08;;
2177;SDS011;1095;50.992;6.798;2022-08-07T16:38:43;3.45;;;2.28;;